Hilo, HI (96720)

11:02 AM HST on August 30, 2014 (GMT -1000)
Hilo International | Change Station
CLOSE
Current Station
Airport
Location: Hilo,
Elevation: 36 ft
Nearby Weather Stations
Active Advisory: High Surf Advisory

Elev 36 ft 19.72 °N, 155.05 °W | Updated 9 minutes ago

Partly Cloudy
Partly Cloudy
85 °F
Feels Like 89 °F
N
8
Wind Variable Wind from NE

Today
High -- | Low -- °F
--% Chance of Precip.
Yesterday
High -- | Low -- °F
Precip. -- in
6:04 AM 6:36 PM
Waxing Crescent, 24% visible
Pressure 29.96 in
Visibility 10.0 miles
Clouds Few 3000 ft
Heat Index 89 °F
Dew Point 69 °F
Humidity 59%
Rainfall 0.00 in
Snow Depth Not available.
UV 10 out of 12
Pollen Not available.
PM2.5 Good
Flu Activity Not available.
METAR PHTO 302053Z 04007KT 10SM FEW030 29/21 A2996 RMK AO2 SLP144 T02940206 50003 $

More Conditions Fewer Conditions

Pressure 29.96 in
Visibility 10.0 miles
Clouds Few 3000 ft
Heat Index 89 °F
Dew Point 69 °F
Humidity 59%
Rainfall 0.00 in
Snow Depth Not available.
UV 10 out of 12
Pollen Not available.
PM2.5 Good
Flu Activity Not available.
METAR PHTO 302053Z 04007KT 10SM FEW030 29/21 A2996 RMK AO2 SLP144 T02940206 50003 $

More Conditions Fewer Conditions

10-Day Weather Forecast

Almanac

Astronomy

Aug. 30, 2014 Rise Set
Actual Time 6:04 AM HST 6:36 PM HST
Civil Twilight 5:42 AM HST 6:59 PM HST
Nautical Twilight 5:16 AM HST 7:25 PM HST
Astronomical Twilight 4:49 AM HST 7:51 PM HST
Moon 10:19 AM HST 10:03 PM HST
Length of Visible Light 13h 17m
Length of Day
12h 32m
Tomorrow will be 1m 3s shorter.
Waxing Crescent, 24% of the Moon is Illuminated
Today
Waxing Crescent
Sep 2
First Quarter
Sep 8
Full
Sep 15
Last Quarter
Sep 24
New

Today's Extremes

State Highs State Lows

Community

WunderPhotos

Upload Photos

1,748,627 photos uploaded!

WunderBlogs® & News

Nearby

Air Quality

  Air Quality AQ Index Pollutant
Current Good
PM2.5

Snow Depth

Station Depth Elevation
No new snow has been reported.

Earthquake Activity

City Distance Mag. Time & Date
No recent earthquake activity has been reported nearby.
Minimum magnitude displayed is 2.5.

Coastal Water Temperatures

Place Temperature
No Stations Reporting

Nearby Weather Stations